Terminal Aerodrome Forecast
Issued by NWS

Home | Current Version | Previous Version | Text Only | Print | Product List | Glossary On
Versions: 1 2 3 4 5 6 7 8 9 10 11 12
000
FTUS46 KMTR 262300
TAFSNS
TAF
KSNS 262334Z 2700/2724 30007KT P6SM OVC200
     FM270300 VRB03KT P6SM OVC200
     FM271100 11012KT P6SM VCSH SCT080 OVC120
     FM272000 12006KT P6SM SCT120 BKN200=

USA.gov is the U.S. government's official web portal to all federal, state and local government web resources and services.